sensor_id;sensor_type;location;lat;lon;timestamp;temperature;humidity
25280;DHT22;13225;47.804;12.116;2023-03-01T00:01:26;0.30;99.90
25280;DHT22;13225;47.804;12.116;2023-03-01T00:03:53;0.30;99.90
25280;DHT22;13225;47.804;12.116;2023-03-01T00:06:20;0.30;99.90
25280;DHT22;13225;47.804;12.116;2023-03-01T00:08:46;0.30;99.90
25280;DHT22;13225;47.804;12.116;2023-03-01T00:11:18;0.40;99.90
25280;DHT22;13225;47.804;12.116;2023-03-01T00:13:46;0.40;99.90
25280;DHT22;13225;47.804;12.116;2023-03-01T00:16:18;0.40;99.90
25280;DHT22;13225;47.804;12.116;2023-03-01T00:18:44;0.40;99.90
25280;DHT22;13225;47.804;12.116;2023-03-01T00:21:10;0.30;99.90
25280;DHT22;13225;47.804;12.116;2023-03-01T00:23:36;0.20;99.90
25280;DHT22;13225;47.804;12.116;2023-03-01T00:26:02;0.20;99.90
25280;DHT22;13225;47.804;12.116;2023-03-01T00:28:27;0.20;99.90
25280;DHT22;13225;47.804;12.116;2023-03-01T00:30:53;0.30;99.90
25280;DHT22;13225;47.804;12.116;2023-03-01T00:33:19;0.30;99.90
25280;DHT22;13225;47.804;12.116;2023-03-01T00:35:44;0.30;99.90
25280;DHT22;13225;47.804;12.116;2023-03-01T00:38:10;0.30;99.90
25280;DHT22;13225;47.804;12.116;2023-03-01T00:40:36;0.20;99.90
25280;DHT22;13225;47.804;12.116;2023-03-01T00:43:03;0.20;99.90
25280;DHT22;13225;47.804;12.116;2023-03-01T00:45:29;0.20;99.90
25280;DHT22;13225;47.804;12.116;2023-03-01T00:47:58;0.20;99.90
25280;DHT22;13225;47.804;12.116;2023-03-01T00:50:24;0.20;99.90
25280;DHT22;13225;47.804;12.116;2023-03-01T00:52:54;0.30;99.90
25280;DHT22;13225;47.804;12.116;2023-03-01T00:55:20;0.30;99.90
25280;DHT22;13225;47.804;12.116;2023-03-01T00:57:46;0.30;99.90
25280;DHT22;13225;47.804;12.116;2023-03-01T01:00:12;0.30;99.90
25280;DHT22;13225;47.804;12.116;2023-03-01T01:02:37;0.30;99.90
25280;DHT22;13225;47.804;12.116;2023-03-01T01:05:04;0.40;99.90
25280;DHT22;13225;47.804;12.116;2023-03-01T01:07:30;0.40;99.90
25280;DHT22;13225;47.804;12.116;2023-03-01T01:09:55;0.40;99.90
25280;DHT22;13225;47.804;12.116;2023-03-01T01:12:21;0.40;99.90
25280;DHT22;13225;47.804;12.116;2023-03-01T01:14:47;0.40;99.90
25280;DHT22;13225;47.804;12.116;2023-03-01T01:17:12;0.30;99.90
25280;DHT22;13225;47.804;12.116;2023-03-01T01:19:38;0.30;99.90
25280;DHT22;13225;47.804;12.116;2023-03-01T01:22:04;0.30;99.90
25280;DHT22;13225;47.804;12.116;2023-03-01T01:24:29;0.30;99.90
25280;DHT22;13225;47.804;12.116;2023-03-01T01:26:55;0.20;99.90
25280;DHT22;13225;47.804;12.116;2023-03-01T01:29:21;0.30;99.90
25280;DHT22;13225;47.804;12.116;2023-03-01T01:31:46;0.30;99.90
25280;DHT22;13225;47.804;12.116;2023-03-01T01:34:17;0.30;99.90
25280;DHT22;13225;47.804;12.116;2023-03-01T01:36:43;0.30;99.90
25280;DHT22;13225;47.804;12.116;2023-03-01T01:39:09;0.20;99.90
25280;DHT22;13225;47.804;12.116;2023-03-01T01:41:39;0.20;99.90
25280;DHT22;13225;47.804;12.116;2023-03-01T01:44:14;0.30;99.90
25280;DHT22;13225;47.804;12.116;2023-03-01T01:51:51;0.30;99.90
25280;DHT22;13225;47.804;12.116;2023-03-01T01:54:24;0.30;99.90
25280;DHT22;13225;47.804;12.116;2023-03-01T01:56:58;0.30;99.90
25280;DHT22;13225;47.804;12.116;2023-03-01T01:59:28;0.30;99.90
25280;DHT22;13225;47.804;12.116;2023-03-01T02:01:55;0.30;99.90
25280;DHT22;13225;47.804;12.116;2023-03-01T02:04:22;0.30;99.90
25280;DHT22;13225;47.804;12.116;2023-03-01T02:07:18;0.30;99.90
25280;DHT22;13225;47.804;12.116;2023-03-01T02:09:47;0.30;99.90
25280;DHT22;13225;47.804;12.116;2023-03-01T02:12:14;0.30;99.90
25280;DHT22;13225;47.804;12.116;2023-03-01T02:14:40;0.30;99.90
25280;DHT22;13225;47.804;12.116;2023-03-01T02:17:06;0.30;99.90
25280;DHT22;13225;47.804;12.116;2023-03-01T02:22:25;0.30;99.90
25280;DHT22;13225;47.804;12.116;2023-03-01T02:24:56;0.40;99.90
25280;DHT22;13225;47.804;12.116;2023-03-01T02:27:38;0.40;99.90
25280;DHT22;13225;47.804;12.116;2023-03-01T02:30:05;0.40;99.90
25280;DHT22;13225;47.804;12.116;2023-03-01T02:32:32;0.50;99.90
25280;DHT22;13225;47.804;12.116;2023-03-01T02:34:57;0.50;99.90
25280;DHT22;13225;47.804;12.116;2023-03-01T02:37:24;0.50;99.90
25280;DHT22;13225;47.804;12.116;2023-03-01T02:39:59;0.50;99.90
25280;DHT22;13225;47.804;12.116;2023-03-01T02:42:35;0.60;99.90
25280;DHT22;13225;47.804;12.116;2023-03-01T02:45:02;0.60;99.90
25280;DHT22;13225;47.804;12.116;2023-03-01T02:47:28;0.60;99.90
25280;DHT22;13225;47.804;12.116;2023-03-01T02:49:53;0.70;99.90
25280;DHT22;13225;47.804;12.116;2023-03-01T02:52:40;0.70;99.90
25280;DHT22;13225;47.804;12.116;2023-03-01T02:55:13;0.70;99.90
25280;DHT22;13225;47.804;12.116;2023-03-01T02:57:42;0.70;99.90
25280;DHT22;13225;47.804;12.116;2023-03-01T03:00:12;0.70;99.90
25280;DHT22;13225;47.804;12.116;2023-03-01T03:02:46;0.70;99.90
25280;DHT22;13225;47.804;12.116;2023-03-01T03:05:28;0.80;99.90
25280;DHT22;13225;47.804;12.116;2023-03-01T03:07:54;0.70;99.90
25280;DHT22;13225;47.804;12.116;2023-03-01T03:10:26;0.70;99.90
25280;DHT22;13225;47.804;12.116;2023-03-01T03:12:54;0.70;99.90
25280;DHT22;13225;47.804;12.116;2023-03-01T03:15:21;0.70;99.90
25280;DHT22;13225;47.804;12.116;2023-03-01T03:17:47;0.60;99.90
25280;DHT22;13225;47.804;12.116;2023-03-01T03:20:16;0.60;99.90
25280;DHT22;13225;47.804;12.116;2023-03-01T03:22:45;0.60;99.90
25280;DHT22;13225;47.804;12.116;2023-03-01T03:25:11;0.60;99.90
25280;DHT22;13225;47.804;12.116;2023-03-01T03:27:42;0.60;99.90
25280;DHT22;13225;47.804;12.116;2023-03-01T03:30:09;0.60;99.90
25280;DHT22;13225;47.804;12.116;2023-03-01T03:32:41;0.60;99.90
25280;DHT22;13225;47.804;12.116;2023-03-01T03:35:09;0.60;99.90
25280;DHT22;13225;47.804;12.116;2023-03-01T03:37:40;0.60;99.90
25280;DHT22;13225;47.804;12.116;2023-03-01T03:40:24;0.60;99.90
25280;DHT22;13225;47.804;12.116;2023-03-01T03:42:50;0.60;99.90
25280;DHT22;13225;47.804;12.116;2023-03-01T03:45:16;0.70;99.90
25280;DHT22;13225;47.804;12.116;2023-03-01T03:47:43;0.80;99.90
25280;DHT22;13225;47.804;12.116;2023-03-01T03:50:13;0.80;99.90
25280;DHT22;13225;47.804;12.116;2023-03-01T03:52:39;0.90;99.90
25280;DHT22;13225;47.804;12.116;2023-03-01T03:55:06;0.90;99.90
25280;DHT22;13225;47.804;12.116;2023-03-01T03:57:45;0.90;99.90
25280;DHT22;13225;47.804;12.116;2023-03-01T04:00:18;0.90;99.90
25280;DHT22;13225;47.804;12.116;2023-03-01T04:02:45;0.80;99.90
25280;DHT22;13225;47.804;12.116;2023-03-01T04:05:12;0.80;99.90
25280;DHT22;13225;47.804;12.116;2023-03-01T04:07:39;0.90;99.90
25280;DHT22;13225;47.804;12.116;2023-03-01T04:10:07;0.90;99.90
25280;DHT22;13225;47.804;12.116;2023-03-01T04:12:34;0.80;99.90
25280;DHT22;13225;47.804;12.116;2023-03-01T04:15:01;0.80;99.90
25280;DHT22;13225;47.804;12.116;2023-03-01T04:17:26;0.80;99.90
25280;DHT22;13225;47.804;12.116;2023-03-01T04:19:52;0.80;99.90
25280;DHT22;13225;47.804;12.116;2023-03-01T04:22:18;0.80;99.90
25280;DHT22;13225;47.804;12.116;2023-03-01T04:24:44;0.80;99.90
25280;DHT22;13225;47.804;12.116;2023-03-01T04:27:11;0.80;99.90
25280;DHT22;13225;47.804;12.116;2023-03-01T04:29:36;0.80;99.90
25280;DHT22;13225;47.804;12.116;2023-03-01T04:32:02;0.80;99.90
25280;DHT22;13225;47.804;12.116;2023-03-01T04:34:29;0.70;99.90
25280;DHT22;13225;47.804;12.116;2023-03-01T04:36:55;0.70;99.90
25280;DHT22;13225;47.804;12.116;2023-03-01T04:39:21;0.80;99.90
25280;DHT22;13225;47.804;12.116;2023-03-01T04:41:47;0.70;99.90
25280;DHT22;13225;47.804;12.116;2023-03-01T04:44:12;0.70;99.90
25280;DHT22;13225;47.804;12.116;2023-03-01T04:46:38;0.80;99.90
25280;DHT22;13225;47.804;12.116;2023-03-01T04:49:04;0.70;99.90
25280;DHT22;13225;47.804;12.116;2023-03-01T04:51:31;0.80;99.90
25280;DHT22;13225;47.804;12.116;2023-03-01T04:53:58;0.70;99.90
25280;DHT22;13225;47.804;12.116;2023-03-01T04:56:23;0.70;99.90
25280;DHT22;13225;47.804;12.116;2023-03-01T04:58:49;0.70;99.90
25280;DHT22;13225;47.804;12.116;2023-03-01T05:01:17;0.70;99.90
25280;DHT22;13225;47.804;12.116;2023-03-01T05:03:52;0.70;99.90
25280;DHT22;13225;47.804;12.116;2023-03-01T05:06:19;0.70;99.90
25280;DHT22;13225;47.804;12.116;2023-03-01T05:08:45;0.70;99.90
25280;DHT22;13225;47.804;12.116;2023-03-01T05:11:11;0.70;99.90
25280;DHT22;13225;47.804;12.116;2023-03-01T05:13:38;0.70;99.90
25280;DHT22;13225;47.804;12.116;2023-03-01T05:16:05;0.60;99.90
25280;DHT22;13225;47.804;12.116;2023-03-01T05:18:34;0.70;99.90
25280;DHT22;13225;47.804;12.116;2023-03-01T05:21:06;0.70;99.90
25280;DHT22;13225;47.804;12.116;2023-03-01T05:23:33;0.70;99.90
25280;DHT22;13225;47.804;12.116;2023-03-01T05:26:00;0.60;99.90
25280;DHT22;13225;47.804;12.116;2023-03-01T05:28:27;0.60;99.90
25280;DHT22;13225;47.804;12.116;2023-03-01T05:30:54;0.60;99.90
25280;DHT22;13225;47.804;12.116;2023-03-01T05:33:19;0.50;99.90
25280;DHT22;13225;47.804;12.116;2023-03-01T05:35:47;0.50;99.90
25280;DHT22;13225;47.804;12.116;2023-03-01T05:38:14;0.50;99.90
25280;DHT22;13225;47.804;12.116;2023-03-01T05:40:41;0.50;99.90
25280;DHT22;13225;47.804;12.116;2023-03-01T05:43:07;0.50;99.90
25280;DHT22;13225;47.804;12.116;2023-03-01T05:45:33;0.50;99.90
25280;DHT22;13225;47.804;12.116;2023-03-01T05:48:01;0.40;99.90
25280;DHT22;13225;47.804;12.116;2023-03-01T05:50:29;0.40;99.90
25280;DHT22;13225;47.804;12.116;2023-03-01T05:53:06;0.40;99.90
25280;DHT22;13225;47.804;12.116;2023-03-01T05:55:34;0.40;99.90
25280;DHT22;13225;47.804;12.116;2023-03-01T05:58:01;0.50;99.90
25280;DHT22;13225;47.804;12.116;2023-03-01T06:00:28;0.40;99.90
25280;DHT22;13225;47.804;12.116;2023-03-01T06:02:54;0.40;99.90
25280;DHT22;13225;47.804;12.116;2023-03-01T06:05:20;0.40;99.90
25280;DHT22;13225;47.804;12.116;2023-03-01T06:07:46;0.40;99.90
25280;DHT22;13225;47.804;12.116;2023-03-01T06:10:12;0.40;99.90
25280;DHT22;13225;47.804;12.116;2023-03-01T06:12:40;0.40;99.90
25280;DHT22;13225;47.804;12.116;2023-03-01T06:15:06;0.40;99.90
25280;DHT22;13225;47.804;12.116;2023-03-01T06:17:34;0.40;99.90
25280;DHT22;13225;47.804;12.116;2023-03-01T06:20:24;0.40;99.90
25280;DHT22;13225;47.804;12.116;2023-03-01T06:22:50;0.40;99.90
25280;DHT22;13225;47.804;12.116;2023-03-01T06:25:18;0.40;99.90
25280;DHT22;13225;47.804;12.116;2023-03-01T06:27:44;0.40;99.90
25280;DHT22;13225;47.804;12.116;2023-03-01T06:30:12;0.40;99.90
25280;DHT22;13225;47.804;12.116;2023-03-01T06:32:39;0.40;99.90
25280;DHT22;13225;47.804;12.116;2023-03-01T06:35:07;0.40;99.90
25280;DHT22;13225;47.804;12.116;2023-03-01T06:37:33;0.40;99.90
25280;DHT22;13225;47.804;12.116;2023-03-01T06:40:01;0.50;99.90
25280;DHT22;13225;47.804;12.116;2023-03-01T06:42:30;0.50;99.90
25280;DHT22;13225;47.804;12.116;2023-03-01T06:44:55;0.50;99.90
25280;DHT22;13225;47.804;12.116;2023-03-01T06:47:21;0.50;99.90
25280;DHT22;13225;47.804;12.116;2023-03-01T06:49:47;0.50;99.90
25280;DHT22;13225;47.804;12.116;2023-03-01T06:52:12;0.60;99.90
25280;DHT22;13225;47.804;12.116;2023-03-01T06:54:38;0.60;99.90
25280;DHT22;13225;47.804;12.116;2023-03-01T06:57:05;0.60;99.90
25280;DHT22;13225;47.804;12.116;2023-03-01T06:59:31;0.60;99.90
25280;DHT22;13225;47.804;12.116;2023-03-01T07:01:56;0.60;99.90
25280;DHT22;13225;47.804;12.116;2023-03-01T07:04:22;0.60;99.90
25280;DHT22;13225;47.804;12.116;2023-03-01T07:06:48;0.70;99.90
25280;DHT22;13225;47.804;12.116;2023-03-01T07:09:23;0.70;99.90
25280;DHT22;13225;47.804;12.116;2023-03-01T07:11:49;0.70;99.90
25280;DHT22;13225;47.804;12.116;2023-03-01T07:14:15;0.70;99.90
25280;DHT22;13225;47.804;12.116;2023-03-01T07:16:41;0.70;99.90
25280;DHT22;13225;47.804;12.116;2023-03-01T07:19:06;0.60;99.90
25280;DHT22;13225;47.804;12.116;2023-03-01T07:21:32;0.70;99.90
25280;DHT22;13225;47.804;12.116;2023-03-01T07:23:59;0.80;99.90
25280;DHT22;13225;47.804;12.116;2023-03-01T07:26:25;0.80;99.90
25280;DHT22;13225;47.804;12.116;2023-03-01T07:28:51;0.90;99.90
25280;DHT22;13225;47.804;12.116;2023-03-01T07:31:16;1.00;99.90
25280;DHT22;13225;47.804;12.116;2023-03-01T07:33:42;1.10;99.90
25280;DHT22;13225;47.804;12.116;2023-03-01T07:36:08;1.10;99.90
25280;DHT22;13225;47.804;12.116;2023-03-01T07:38:34;1.20;99.90
25280;DHT22;13225;47.804;12.116;2023-03-01T07:41:01;1.20;99.90
25280;DHT22;13225;47.804;12.116;2023-03-01T07:43:28;1.20;99.90
25280;DHT22;13225;47.804;12.116;2023-03-01T07:45:54;1.20;99.90
25280;DHT22;13225;47.804;12.116;2023-03-01T07:48:22;1.20;99.90
25280;DHT22;13225;47.804;12.116;2023-03-01T07:50:48;1.30;99.90
25280;DHT22;13225;47.804;12.116;2023-03-01T07:53:15;1.30;99.90
25280;DHT22;13225;47.804;12.116;2023-03-01T07:55:40;1.40;99.90
25280;DHT22;13225;47.804;12.116;2023-03-01T07:58:06;1.50;99.90
25280;DHT22;13225;47.804;12.116;2023-03-01T08:00:31;1.50;99.90
25280;DHT22;13225;47.804;12.116;2023-03-01T08:03:00;1.50;99.90
25280;DHT22;13225;47.804;12.116;2023-03-01T08:05:26;1.60;99.90
25280;DHT22;13225;47.804;12.116;2023-03-01T08:07:52;1.70;99.90
25280;DHT22;13225;47.804;12.116;2023-03-01T08:10:18;1.70;99.90
25280;DHT22;13225;47.804;12.116;2023-03-01T08:12:44;1.80;99.90
25280;DHT22;13225;47.804;12.116;2023-03-01T08:15:10;1.90;99.90
25280;DHT22;13225;47.804;12.116;2023-03-01T08:17:36;1.90;99.90
25280;DHT22;13225;47.804;12.116;2023-03-01T08:20:01;1.90;99.90
25280;DHT22;13225;47.804;12.116;2023-03-01T08:22:29;2.10;99.90
25280;DHT22;13225;47.804;12.116;2023-03-01T08:24:55;2.20;99.90
25280;DHT22;13225;47.804;12.116;2023-03-01T08:27:21;2.30;99.90
25280;DHT22;13225;47.804;12.116;2023-03-01T08:29:46;2.50;99.90
25280;DHT22;13225;47.804;12.116;2023-03-01T08:32:12;2.60;99.90
25280;DHT22;13225;47.804;12.116;2023-03-01T08:34:38;2.70;99.90
25280;DHT22;13225;47.804;12.116;2023-03-01T08:37:03;2.80;99.90
25280;DHT22;13225;47.804;12.116;2023-03-01T08:39:29;2.80;99.90
25280;DHT22;13225;47.804;12.116;2023-03-01T08:41:54;2.80;99.90
25280;DHT22;13225;47.804;12.116;2023-03-01T08:44:20;3.00;99.90
25280;DHT22;13225;47.804;12.116;2023-03-01T08:46:47;3.00;99.90
25280;DHT22;13225;47.804;12.116;2023-03-01T08:49:14;3.00;99.90
25280;DHT22;13225;47.804;12.116;2023-03-01T08:51:41;3.00;99.90
25280;DHT22;13225;47.804;12.116;2023-03-01T08:54:10;3.00;99.90
25280;DHT22;13225;47.804;12.116;2023-03-01T08:56:37;3.10;99.90
25280;DHT22;13225;47.804;12.116;2023-03-01T08:59:02;3.00;99.90
25280;DHT22;13225;47.804;12.116;2023-03-01T09:01:28;3.30;99.90
25280;DHT22;13225;47.804;12.116;2023-03-01T09:03:54;3.50;99.90
25280;DHT22;13225;47.804;12.116;2023-03-01T09:06:20;3.60;99.90
25280;DHT22;13225;47.804;12.116;2023-03-01T09:08:47;3.30;99.90
25280;DHT22;13225;47.804;12.116;2023-03-01T09:11:19;3.50;99.90
25280;DHT22;13225;47.804;12.116;2023-03-01T09:13:46;3.60;99.90
25280;DHT22;13225;47.804;12.116;2023-03-01T09:16:13;3.60;99.90
25280;DHT22;13225;47.804;12.116;2023-03-01T09:18:39;3.30;99.90
25280;DHT22;13225;47.804;12.116;2023-03-01T09:23:35;3.50;99.90
25280;DHT22;13225;47.804;12.116;2023-03-01T09:26:05;3.50;99.90
25280;DHT22;13225;47.804;12.116;2023-03-01T09:28:31;3.30;99.90
25280;DHT22;13225;47.804;12.116;2023-03-01T09:31:00;3.30;99.90
25280;DHT22;13225;47.804;12.116;2023-03-01T09:33:27;3.40;99.90
25280;DHT22;13225;47.804;12.116;2023-03-01T09:35:59;3.60;99.90
25280;DHT22;13225;47.804;12.116;2023-03-01T09:38:25;4.00;99.90
25280;DHT22;13225;47.804;12.116;2023-03-01T09:40:51;4.20;99.90
25280;DHT22;13225;47.804;12.116;2023-03-01T09:43:42;4.10;99.90
25280;DHT22;13225;47.804;12.116;2023-03-01T09:46:10;3.80;99.90
25280;DHT22;13225;47.804;12.116;2023-03-01T09:48:52;3.70;99.90
25280;DHT22;13225;47.804;12.116;2023-03-01T09:51:40;3.70;99.90
25280;DHT22;13225;47.804;12.116;2023-03-01T09:54:09;3.80;99.90
25280;DHT22;13225;47.804;12.116;2023-03-01T09:56:53;3.90;99.90
25280;DHT22;13225;47.804;12.116;2023-03-01T10:04:48;4.00;99.90
25280;DHT22;13225;47.804;12.116;2023-03-01T10:07:20;4.10;99.90
25280;DHT22;13225;47.804;12.116;2023-03-01T10:09:47;4.00;99.90
25280;DHT22;13225;47.804;12.116;2023-03-01T10:12:24;4.10;99.90
25280;DHT22;13225;47.804;12.116;2023-03-01T10:20:23;4.10;99.90
25280;DHT22;13225;47.804;12.116;2023-03-01T10:22:50;4.00;99.90
25280;DHT22;13225;47.804;12.116;2023-03-01T10:30:47;4.20;99.90
25280;DHT22;13225;47.804;12.116;2023-03-01T10:33:23;4.20;99.90
25280;DHT22;13225;47.804;12.116;2023-03-01T10:35:50;4.00;99.90
25280;DHT22;13225;47.804;12.116;2023-03-01T10:38:18;3.90;99.90
25280;DHT22;13225;47.804;12.116;2023-03-01T10:41:00;4.00;99.90
25280;DHT22;13225;47.804;12.116;2023-03-01T10:43:55;4.00;99.90
25280;DHT22;13225;47.804;12.116;2023-03-01T10:46:30;3.70;99.90
25280;DHT22;13225;47.804;12.116;2023-03-01T10:49:16;3.60;99.90
25280;DHT22;13225;47.804;12.116;2023-03-01T10:51:44;3.40;99.90
25280;DHT22;13225;47.804;12.116;2023-03-01T10:54:23;3.50;99.90
25280;DHT22;13225;47.804;12.116;2023-03-01T10:56:56;3.60;99.90
25280;DHT22;13225;47.804;12.116;2023-03-01T11:04:35;3.90;99.90
25280;DHT22;13225;47.804;12.116;2023-03-01T11:07:02;4.00;99.90
25280;DHT22;13225;47.804;12.116;2023-03-01T11:09:32;4.10;99.90
25280;DHT22;13225;47.804;12.116;2023-03-01T11:12:08;4.00;99.90
25280;DHT22;13225;47.804;12.116;2023-03-01T11:14:39;4.20;99.90
25280;DHT22;13225;47.804;12.116;2023-03-01T11:17:25;4.30;99.90
25280;DHT22;13225;47.804;12.116;2023-03-01T11:22:55;4.40;99.90
25280;DHT22;13225;47.804;12.116;2023-03-01T11:25:29;4.40;99.90
25280;DHT22;13225;47.804;12.116;2023-03-01T11:27:57;4.50;99.90
25280;DHT22;13225;47.804;12.116;2023-03-01T11:30:34;4.40;99.90
25280;DHT22;13225;47.804;12.116;2023-03-01T11:33:18;4.30;99.90
25280;DHT22;13225;47.804;12.116;2023-03-01T11:36:07;4.40;99.90
25280;DHT22;13225;47.804;12.116;2023-03-01T11:38:37;4.30;99.90
25280;DHT22;13225;47.804;12.116;2023-03-01T11:41:26;4.40;99.90
25280;DHT22;13225;47.804;12.116;2023-03-01T11:44:54;4.30;99.90
25280;DHT22;13225;47.804;12.116;2023-03-01T11:55:30;4.00;99.90
25280;DHT22;13225;47.804;12.116;2023-03-01T12:01:08;4.10;99.90
25280;DHT22;13225;47.804;12.116;2023-03-01T12:12:27;4.20;99.90
25280;DHT22;13225;47.804;12.116;2023-03-01T12:26:08;4.40;99.90
25280;DHT22;13225;47.804;12.116;2023-03-01T12:37:18;4.40;99.90
25280;DHT22;13225;47.804;12.116;2023-03-01T12:46:07;4.50;99.90
25280;DHT22;13225;47.804;12.116;2023-03-01T12:51:24;4.70;99.90
25280;DHT22;13225;47.804;12.116;2023-03-01T12:53:54;4.90;99.90
25280;DHT22;13225;47.804;12.116;2023-03-01T12:56:24;4.80;99.90
25280;DHT22;13225;47.804;12.116;2023-03-01T13:17:54;5.40;99.90
25280;DHT22;13225;47.804;12.116;2023-03-01T13:20:25;5.20;99.90
25280;DHT22;13225;47.804;12.116;2023-03-01T13:36:48;7.30;99.90
25280;DHT22;13225;47.804;12.116;2023-03-01T13:39:27;7.60;99.90
25280;DHT22;13225;47.804;12.116;2023-03-01T13:41:55;8.10;99.90
25280;DHT22;13225;47.804;12.116;2023-03-01T13:44:37;8.50;99.90
25280;DHT22;13225;47.804;12.116;2023-03-01T13:47:15;8.50;99.90
25280;DHT22;13225;47.804;12.116;2023-03-01T13:50:01;8.00;99.90
25280;DHT22;13225;47.804;12.116;2023-03-01T13:52:46;7.60;99.90
25280;DHT22;13225;47.804;12.116;2023-03-01T13:55:21;7.60;99.90
25280;DHT22;13225;47.804;12.116;2023-03-01T13:57:53;6.50;99.90
25280;DHT22;13225;47.804;12.116;2023-03-01T14:00:35;6.10;99.90
25280;DHT22;13225;47.804;12.116;2023-03-01T14:05:29;6.50;99.90
25280;DHT22;13225;47.804;12.116;2023-03-01T14:07:55;6.70;99.90
25280;DHT22;13225;47.804;12.116;2023-03-01T14:10:21;7.00;99.90
25280;DHT22;13225;47.804;12.116;2023-03-01T14:12:54;7.40;99.90
25280;DHT22;13225;47.804;12.116;2023-03-01T14:15:29;7.50;99.90
25280;DHT22;13225;47.804;12.116;2023-03-01T14:20:42;7.60;99.90
25280;DHT22;13225;47.804;12.116;2023-03-01T14:23:19;7.90;99.90
25280;DHT22;13225;47.804;12.116;2023-03-01T14:25:54;8.30;99.90
25280;DHT22;13225;47.804;12.116;2023-03-01T14:28:31;8.90;99.90
25280;DHT22;13225;47.804;12.116;2023-03-01T14:31:00;8.70;99.90
25280;DHT22;13225;47.804;12.116;2023-03-01T14:33:34;8.20;99.90
25280;DHT22;13225;47.804;12.116;2023-03-01T14:36:13;8.50;99.90
25280;DHT22;13225;47.804;12.116;2023-03-01T14:38:46;8.70;99.90
25280;DHT22;13225;47.804;12.116;2023-03-01T14:41:22;8.00;99.90
25280;DHT22;13225;47.804;12.116;2023-03-01T14:43:52;7.90;99.90
25280;DHT22;13225;47.804;12.116;2023-03-01T14:46:20;8.40;99.90
25280;DHT22;13225;47.804;12.116;2023-03-01T14:48:51;8.20;99.90
25280;DHT22;13225;47.804;12.116;2023-03-01T14:51:18;8.30;99.90
25280;DHT22;13225;47.804;12.116;2023-03-01T14:53:43;8.20;99.90
25280;DHT22;13225;47.804;12.116;2023-03-01T14:56:14;8.00;99.90
25280;DHT22;13225;47.804;12.116;2023-03-01T14:58:43;8.20;99.90
25280;DHT22;13225;47.804;12.116;2023-03-01T15:01:14;7.90;99.90
25280;DHT22;13225;47.804;12.116;2023-03-01T15:03:46;7.60;99.90
25280;DHT22;13225;47.804;12.116;2023-03-01T15:06:19;7.60;99.90
25280;DHT22;13225;47.804;12.116;2023-03-01T15:08:49;7.60;99.90
25280;DHT22;13225;47.804;12.116;2023-03-01T15:11:32;7.70;99.90
25280;DHT22;13225;47.804;12.116;2023-03-01T15:13:58;7.50;99.90
25280;DHT22;13225;47.804;12.116;2023-03-01T15:16:30;7.30;99.90
25280;DHT22;13225;47.804;12.116;2023-03-01T15:18:59;7.40;99.90
25280;DHT22;13225;47.804;12.116;2023-03-01T15:21:37;7.30;99.90
25280;DHT22;13225;47.804;12.116;2023-03-01T15:24:08;6.60;99.90
25280;DHT22;13225;47.804;12.116;2023-03-01T15:29:22;6.10;99.90
25280;DHT22;13225;47.804;12.116;2023-03-01T15:32:25;5.80;99.90
25280;DHT22;13225;47.804;12.116;2023-03-01T15:34:51;5.70;99.90
25280;DHT22;13225;47.804;12.116;2023-03-01T15:37:47;5.10;99.90
25280;DHT22;13225;47.804;12.116;2023-03-01T15:40:26;5.00;99.90
25280;DHT22;13225;47.804;12.116;2023-03-01T15:43:01;4.90;99.90
25280;DHT22;13225;47.804;12.116;2023-03-01T15:45:29;4.70;99.90
25280;DHT22;13225;47.804;12.116;2023-03-01T15:47:57;4.30;99.90
25280;DHT22;13225;47.804;12.116;2023-03-01T15:50:30;4.30;99.90
25280;DHT22;13225;47.804;12.116;2023-03-01T15:52:59;4.20;99.90
25280;DHT22;13225;47.804;12.116;2023-03-01T15:55:30;4.00;99.90
25280;DHT22;13225;47.804;12.116;2023-03-01T15:58:24;4.10;99.90
25280;DHT22;13225;47.804;12.116;2023-03-01T16:00:51;4.10;99.90
25280;DHT22;13225;47.804;12.116;2023-03-01T16:03:22;4.00;99.90
25280;DHT22;13225;47.804;12.116;2023-03-01T16:05:49;3.90;99.90
25280;DHT22;13225;47.804;12.116;2023-03-01T16:08:16;3.90;99.90
25280;DHT22;13225;47.804;12.116;2023-03-01T16:10:41;3.70;99.90
25280;DHT22;13225;47.804;12.116;2023-03-01T16:13:11;3.50;99.90
25280;DHT22;13225;47.804;12.116;2023-03-01T16:15:37;3.50;99.90
25280;DHT22;13225;47.804;12.116;2023-03-01T16:18:04;3.50;99.90
25280;DHT22;13225;47.804;12.116;2023-03-01T16:20:31;3.50;99.90
25280;DHT22;13225;47.804;12.116;2023-03-01T16:23:01;3.40;99.90
25280;DHT22;13225;47.804;12.116;2023-03-01T16:25:28;3.30;99.90
25280;DHT22;13225;47.804;12.116;2023-03-01T16:27:54;3.30;99.90
25280;DHT22;13225;47.804;12.116;2023-03-01T16:30:22;3.30;99.90
25280;DHT22;13225;47.804;12.116;2023-03-01T16:32:49;3.20;99.90
25280;DHT22;13225;47.804;12.116;2023-03-01T16:35:17;3.20;99.90
25280;DHT22;13225;47.804;12.116;2023-03-01T16:37:43;3.10;99.90
25280;DHT22;13225;47.804;12.116;2023-03-01T16:40:21;3.00;99.90
25280;DHT22;13225;47.804;12.116;2023-03-01T16:42:47;2.90;99.90
25280;DHT22;13225;47.804;12.116;2023-03-01T16:45:13;2.90;99.90
25280;DHT22;13225;47.804;12.116;2023-03-01T16:47:39;2.80;99.90
25280;DHT22;13225;47.804;12.116;2023-03-01T16:50:04;2.70;99.90
25280;DHT22;13225;47.804;12.116;2023-03-01T16:52:30;2.70;99.90
25280;DHT22;13225;47.804;12.116;2023-03-01T16:54:56;2.60;99.90
25280;DHT22;13225;47.804;12.116;2023-03-01T16:57:22;2.50;99.90
25280;DHT22;13225;47.804;12.116;2023-03-01T16:59:53;2.40;99.90
25280;DHT22;13225;47.804;12.116;2023-03-01T17:02:19;2.30;99.90
25280;DHT22;13225;47.804;12.116;2023-03-01T17:04:52;2.20;99.90
25280;DHT22;13225;47.804;12.116;2023-03-01T17:07:18;2.10;99.90
25280;DHT22;13225;47.804;12.116;2023-03-01T17:09:44;2.00;99.90
25280;DHT22;13225;47.804;12.116;2023-03-01T17:12:12;2.00;99.90
25280;DHT22;13225;47.804;12.116;2023-03-01T17:14:38;1.90;99.90
25280;DHT22;13225;47.804;12.116;2023-03-01T17:17:09;1.90;99.90
25280;DHT22;13225;47.804;12.116;2023-03-01T17:19:35;1.90;99.90
25280;DHT22;13225;47.804;12.116;2023-03-01T17:22:05;1.90;99.90
25280;DHT22;13225;47.804;12.116;2023-03-01T17:24:34;1.80;99.90
25280;DHT22;13225;47.804;12.116;2023-03-01T17:27:00;1.60;99.90
25280;DHT22;13225;47.804;12.116;2023-03-01T17:29:26;1.50;99.90
25280;DHT22;13225;47.804;12.116;2023-03-01T17:31:51;1.50;99.90
25280;DHT22;13225;47.804;12.116;2023-03-01T17:34:19;1.40;99.90
25280;DHT22;13225;47.804;12.116;2023-03-01T17:36:45;1.40;99.90
25280;DHT22;13225;47.804;12.116;2023-03-01T17:39:12;1.40;99.90
25280;DHT22;13225;47.804;12.116;2023-03-01T17:41:37;1.50;99.90
25280;DHT22;13225;47.804;12.116;2023-03-01T17:44:03;1.40;99.90
25280;DHT22;13225;47.804;12.116;2023-03-01T17:46:29;1.30;99.90
25280;DHT22;13225;47.804;12.116;2023-03-01T17:48:54;1.20;99.90